createdAt,value
2023-03-12T00:02:04.187Z,14.38
2023-03-12T00:04:32.381Z,17.58
2023-03-12T00:06:59.384Z,16.40
2023-03-12T00:09:26.431Z,14.55
2023-03-12T00:11:53.504Z,16.67
2023-03-12T00:14:20.596Z,15.80
2023-03-12T00:16:47.567Z,21.25
2023-03-12T00:19:14.675Z,17.90
2023-03-12T00:21:41.660Z,17.05
2023-03-12T00:24:08.853Z,12.88
2023-03-12T00:26:35.868Z,12.25
2023-03-12T00:29:02.896Z,11.77
2023-03-12T00:31:32.791Z,15.13
2023-03-12T00:34:01.463Z,13.07
2023-03-12T00:36:30.989Z,16.90
2023-03-12T00:38:59.930Z,11.52
2023-03-12T00:41:28.337Z,14.85
2023-03-12T00:43:55.396Z,9.80
2023-03-12T00:46:22.570Z,11.68
2023-03-12T00:48:49.975Z,10.38
2023-03-12T00:51:17.008Z,13.60
2023-03-12T00:53:44.072Z,9.68
2023-03-12T00:56:11.209Z,18.85
2023-03-12T00:58:38.354Z,16.20
2023-03-12T01:01:05.518Z,11.07
2023-03-12T01:03:32.723Z,12.98
2023-03-12T01:05:59.848Z,10.38
2023-03-12T01:08:27.231Z,14.10
2023-03-12T01:10:54.492Z,16.33
2023-03-12T01:13:22.261Z,13.55
2023-03-12T01:15:49.419Z,13.23
2023-03-12T01:18:16.467Z,14.73
2023-03-12T01:20:43.561Z,16.33
2023-03-12T01:23:11.256Z,13.73
2023-03-12T01:25:38.261Z,12.43
2023-03-12T01:28:05.763Z,10.23
2023-03-12T01:30:32.900Z,13.30
2023-03-12T01:32:59.973Z,9.90
2023-03-12T01:35:27.042Z,12.30
2023-03-12T01:37:55.867Z,32.35
2023-03-12T01:40:28.832Z,10.45
2023-03-12T01:42:57.986Z,13.32
2023-03-12T01:46:03.035Z,12.10
2023-03-12T01:48:38.462Z,16.08
2023-03-12T01:51:08.280Z,8.73
2023-03-12T01:53:37.815Z,11.65
2023-03-12T01:56:06.284Z,16.75
2023-03-12T01:58:37.968Z,12.98
2023-03-12T02:01:05.497Z,12.27
2023-03-12T02:03:35.255Z,12.43
2023-03-12T02:06:08.219Z,11.98
2023-03-12T02:08:37.997Z,6.45
2023-03-12T02:11:05.484Z,12.25
2023-03-12T02:13:33.002Z,10.80
2023-03-12T02:16:00.695Z,7.32
2023-03-12T02:18:28.253Z,21.45
2023-03-12T02:21:15.863Z,10.32
2023-03-12T02:23:57.532Z,12.48
2023-03-12T02:26:29.111Z,17.40
2023-03-12T02:28:59.894Z,9.02
2023-03-12T02:31:32.998Z,11.45
2023-03-12T02:34:00.631Z,7.68
2023-03-12T02:36:28.038Z,7.32
2023-03-12T02:38:55.862Z,9.90
2023-03-12T02:41:26.366Z,9.02
2023-03-12T02:44:08.407Z,10.60
2023-03-12T02:46:41.795Z,10.27
2023-03-12T02:49:09.317Z,8.10
2023-03-12T02:51:36.330Z,13.23
2023-03-12T02:54:03.656Z,7.88
2023-03-12T02:56:30.824Z,10.65
2023-03-12T02:58:59.264Z,6.95
2023-03-12T03:01:27.403Z,14.48
2023-03-12T03:03:54.884Z,10.75
2023-03-12T03:06:23.057Z,13.50
2023-03-12T03:08:50.172Z,17.00
2023-03-12T03:11:17.369Z,14.30
2023-03-12T03:13:44.782Z,13.60
2023-03-12T03:16:13.487Z,14.13
2023-03-12T03:18:40.686Z,30.13
2023-03-12T03:21:09.590Z,26.42
2023-03-12T03:23:37.311Z,16.80
2023-03-12T03:26:04.615Z,101.97
2023-03-12T03:28:31.958Z,14.30
2023-03-12T03:31:01.696Z,10.80
2023-03-12T03:33:35.803Z,24.35
2023-03-12T03:36:04.987Z,14.10
2023-03-12T03:38:35.954Z,24.50
2023-03-12T03:41:04.007Z,13.10
2023-03-12T03:43:33.389Z,9.13
2023-03-12T03:46:03.149Z,8.15
2023-03-12T03:48:33.774Z,13.38
2023-03-12T03:51:02.702Z,10.77
2023-03-12T03:53:32.027Z,10.93
2023-03-12T03:55:59.172Z,6.15
2023-03-12T03:58:26.168Z,12.20
2023-03-12T04:00:54.277Z,4.47
2023-03-12T04:03:21.316Z,5.88
2023-03-12T04:05:54.939Z,7.18
2023-03-12T04:08:22.247Z,13.07
2023-03-12T04:10:49.377Z,10.18
2023-03-12T04:13:16.446Z,10.02
2023-03-12T04:15:52.014Z,7.63
2023-03-12T04:18:20.340Z,7.15
2023-03-12T04:20:47.836Z,10.48
2023-03-12T04:23:14.939Z,8.23
2023-03-12T04:25:42.457Z,4.25
2023-03-12T04:28:09.492Z,5.32
2023-03-12T04:30:38.512Z,7.93
2023-03-12T04:33:06.899Z,5.60
2023-03-12T04:35:34.616Z,13.70
2023-03-12T04:38:02.268Z,10.75
2023-03-12T04:40:30.000Z,9.57
2023-03-12T04:42:57.218Z,7.10
2023-03-12T04:45:24.390Z,8.80
2023-03-12T04:47:51.401Z,13.05
2023-03-12T04:50:18.629Z,6.22
2023-03-12T04:52:45.714Z,4.15
2023-03-12T04:55:12.856Z,6.85
2023-03-12T04:57:40.283Z,10.05
2023-03-12T05:00:12.708Z,14.10
2023-03-12T05:02:41.765Z,4.28
2023-03-12T05:05:11.120Z,8.75
2023-03-12T05:07:38.478Z,10.02
2023-03-12T05:10:06.044Z,11.88
2023-03-12T05:12:33.099Z,5.40
2023-03-12T05:15:00.117Z,7.30
2023-03-12T05:17:27.858Z,8.10
2023-03-12T05:19:55.159Z,13.65
2023-03-12T05:22:22.263Z,11.38
2023-03-12T05:24:49.413Z,5.28
2023-03-12T05:27:17.774Z,3.53
2023-03-12T05:29:44.872Z,5.63
2023-03-12T05:32:12.112Z,3.45
2023-03-12T05:34:39.366Z,5.75
2023-03-12T05:37:06.899Z,9.77
2023-03-12T05:39:34.127Z,4.32
2023-03-12T05:42:05.276Z,12.05
2023-03-12T05:44:34.718Z,8.57
2023-03-12T05:47:02.174Z,3.75
2023-03-12T05:49:29.247Z,2.85
2023-03-12T05:51:57.573Z,7.57
2023-03-12T05:54:24.861Z,2.65
2023-03-12T05:56:52.994Z,10.93
2023-03-12T05:59:22.004Z,15.23
2023-03-12T06:01:49.954Z,2.33
2023-03-12T06:04:17.184Z,9.43
2023-03-12T06:06:45.228Z,8.68
2023-03-12T06:09:12.442Z,7.82
2023-03-12T06:11:39.513Z,4.30
2023-03-12T06:14:06.771Z,6.93
2023-03-12T06:16:35.807Z,9.25
2023-03-12T06:19:04.890Z,11.95
2023-03-12T06:21:35.152Z,17.30
2023-03-12T06:24:03.890Z,9.57
2023-03-12T06:26:57.055Z,6.53
2023-03-12T06:29:24.080Z,10.02
2023-03-12T06:31:52.273Z,5.80
2023-03-12T06:34:19.482Z,6.97
2023-03-12T06:36:46.513Z,4.88
2023-03-12T06:39:13.565Z,6.00
2023-03-12T06:41:41.682Z,8.30
2023-03-12T06:44:08.858Z,7.32
2023-03-12T06:46:36.941Z,5.22
2023-03-12T06:49:04.108Z,9.30
2023-03-12T06:51:31.283Z,4.15
2023-03-12T06:54:00.924Z,7.63
2023-03-12T06:56:29.393Z,9.52
2023-03-12T06:58:56.564Z,8.27
2023-03-12T07:01:23.585Z,3.45
2023-03-12T07:03:50.656Z,6.90
2023-03-12T07:06:22.671Z,5.00
2023-03-12T07:08:50.546Z,6.13
2023-03-12T07:11:18.253Z,5.15
2023-03-12T07:13:45.537Z,4.65
2023-03-12T07:16:12.772Z,4.85
2023-03-12T07:18:39.967Z,3.83
2023-03-12T07:21:07.013Z,6.10
2023-03-12T07:23:34.029Z,10.25
2023-03-12T07:26:01.044Z,6.20
2023-03-12T07:28:28.151Z,10.77
2023-03-12T07:31:06.544Z,8.40
2023-03-12T07:33:34.518Z,8.20
2023-03-12T07:36:02.177Z,7.25
2023-03-12T07:38:29.653Z,3.97
2023-03-12T07:40:58.650Z,9.95
2023-03-12T07:43:26.070Z,8.75
2023-03-12T07:45:55.022Z,10.75
2023-03-12T07:48:22.427Z,8.20
2023-03-12T07:50:49.593Z,10.18
2023-03-12T07:53:17.068Z,3.50
2023-03-12T07:55:46.301Z,12.02
2023-03-12T07:58:15.674Z,7.85
2023-03-12T08:00:43.239Z,6.85
2023-03-12T08:03:10.812Z,6.97
2023-03-12T08:05:38.047Z,4.20
2023-03-12T08:08:06.536Z,11.23
2023-03-12T08:10:33.814Z,11.65
2023-03-12T08:13:01.003Z,9.80
2023-03-12T08:15:28.097Z,6.18
2023-03-12T08:17:55.178Z,5.97
2023-03-12T08:20:22.204Z,7.60
2023-03-12T08:22:49.332Z,6.72
2023-03-12T08:25:18.490Z,7.75
2023-03-12T08:27:45.716Z,8.10
2023-03-12T08:30:12.970Z,8.38
2023-03-12T08:32:40.311Z,5.78
2023-03-12T08:35:07.889Z,8.95
2023-03-12T08:37:34.911Z,11.68
2023-03-12T08:40:02.286Z,4.38
2023-03-12T08:42:29.320Z,8.90
2023-03-12T08:44:56.359Z,6.78
2023-03-12T08:47:23.420Z,9.20
2023-03-12T08:49:50.465Z,9.82
2023-03-12T08:52:17.468Z,8.30
2023-03-12T08:54:44.467Z,5.80
2023-03-12T08:57:11.536Z,8.32
2023-03-12T08:59:39.029Z,11.45
2023-03-12T09:02:06.225Z,5.90
2023-03-12T09:04:33.361Z,7.68
2023-03-12T09:07:01.464Z,11.80
2023-03-12T09:09:28.597Z,4.38
2023-03-12T09:11:55.827Z,9.73
2023-03-12T09:17:10.590Z,6.53
2023-03-12T09:19:37.625Z,5.97
2023-03-12T09:22:04.664Z,13.60
2023-03-12T09:24:31.696Z,5.10
2023-03-12T09:26:58.762Z,15.38
2023-03-12T09:29:25.788Z,9.13
2023-03-12T09:31:53.110Z,10.50
2023-03-12T09:34:20.223Z,13.95
2023-03-12T09:36:47.430Z,10.30
2023-03-12T09:39:14.503Z,4.63
2023-03-12T09:41:44.640Z,8.23
2023-03-12T09:44:30.308Z,7.40
2023-03-12T09:47:01.989Z,7.90
2023-03-12T09:49:46.577Z,6.63
2023-03-12T09:52:32.893Z,6.50
2023-03-12T09:55:11.245Z,10.57
2023-03-12T09:57:38.499Z,9.77
2023-03-12T10:00:12.241Z,7.70
2023-03-12T10:02:42.226Z,7.07
2023-03-12T10:05:26.383Z,7.20
2023-03-12T10:08:23.952Z,5.75
2023-03-12T10:11:00.203Z,6.22
2023-03-12T10:13:43.680Z,5.07
2023-03-12T10:16:34.918Z,4.15
2023-03-12T10:19:20.470Z,6.35
2023-03-12T10:21:59.683Z,6.78
2023-03-12T10:24:39.660Z,4.55
2023-03-12T10:27:13.696Z,9.57
2023-03-12T10:29:44.992Z,8.35
2023-03-12T10:32:38.968Z,8.98
2023-03-12T10:35:16.675Z,3.25
2023-03-12T10:37:50.477Z,9.13
2023-03-12T10:40:21.914Z,3.55
2023-03-12T10:42:49.631Z,3.67
2023-03-12T10:45:43.653Z,3.28
2023-03-12T10:48:18.300Z,5.57
2023-03-12T10:51:01.334Z,4.35
2023-03-12T10:53:32.265Z,3.45
2023-03-12T10:56:11.585Z,1.88
2023-03-12T10:58:44.863Z,2.47
2023-03-12T11:01:27.256Z,1.35
2023-03-12T11:04:13.950Z,2.42
2023-03-12T11:06:40.978Z,4.97
2023-03-12T11:09:19.336Z,4.13
2023-03-12T11:11:50.098Z,1.73
2023-03-12T11:14:19.247Z,1.98
2023-03-12T11:16:46.404Z,3.70
2023-03-12T11:19:25.597Z,4.65
2023-03-12T11:22:04.588Z,4.50
2023-03-12T11:24:31.753Z,2.25
2023-03-12T11:27:25.450Z,3.78
2023-03-12T11:29:54.224Z,2.00
2023-03-12T11:32:28.590Z,3.63
2023-03-12T11:34:55.757Z,3.33
2023-03-12T11:37:59.516Z,3.03
2023-03-12T11:40:35.550Z,5.43
2023-03-12T11:43:41.717Z,2.50
2023-03-12T11:46:29.114Z,5.65
2023-03-12T11:48:56.267Z,2.88
2023-03-12T11:51:38.422Z,4.80
2023-03-12T11:54:14.511Z,2.75
2023-03-12T11:56:48.440Z,4.22
2023-03-12T11:59:57.341Z,5.45
2023-03-12T12:02:47.978Z,3.67
2023-03-12T12:05:52.788Z,4.10
2023-03-12T12:08:45.318Z,4.82
2023-03-12T12:11:35.674Z,4.43
2023-03-12T12:14:36.053Z,4.07
2023-03-12T12:17:21.373Z,2.78
2023-03-12T12:20:21.430Z,3.30
2023-03-12T12:23:00.749Z,4.10
2023-03-12T12:25:41.241Z,4.13
2023-03-12T12:28:20.166Z,4.95
2023-03-12T12:31:32.202Z,5.15
2023-03-12T12:34:10.961Z,4.90
2023-03-12T12:36:39.008Z,3.15
2023-03-12T12:39:41.188Z,4.45
2023-03-12T12:42:15.201Z,6.88
2023-03-12T12:44:51.043Z,3.78
2023-03-12T12:47:26.320Z,7.53
2023-03-12T12:49:57.996Z,5.55
2023-03-12T12:52:26.847Z,4.80
2023-03-12T12:54:56.665Z,4.38
2023-03-12T12:57:36.566Z,7.07
2023-03-12T13:00:42.693Z,5.63
2023-03-12T13:03:22.136Z,8.00
2023-03-12T13:05:52.139Z,6.03
2023-03-12T13:08:55.329Z,5.93
2023-03-12T13:14:13.712Z,7.30
2023-03-12T13:16:45.742Z,7.93
2023-03-12T13:19:15.857Z,8.00
2023-03-12T13:21:56.297Z,8.00
2023-03-12T13:24:42.757Z,6.80
2023-03-12T13:27:28.256Z,6.47
2023-03-12T13:29:57.081Z,4.30
2023-03-12T13:32:36.345Z,7.78
2023-03-12T13:35:27.726Z,7.03
2023-03-12T13:37:54.673Z,6.82
2023-03-12T13:40:37.070Z,6.38
2023-03-12T13:43:09.939Z,11.15
2023-03-12T13:45:55.642Z,9.98
2023-03-12T13:48:24.480Z,7.80
2023-03-12T13:51:02.305Z,6.28
2023-03-12T13:53:35.250Z,7.97
2023-03-12T13:56:13.395Z,9.15
2023-03-12T13:59:03.126Z,8.80
2023-03-12T14:01:36.564Z,7.03
2023-03-12T14:04:13.102Z,8.13
2023-03-12T14:06:55.479Z,10.60
2023-03-12T14:09:49.056Z,17.25
2023-03-12T14:12:35.962Z,6.85
2023-03-12T14:15:19.050Z,9.98
2023-03-12T14:17:51.332Z,9.13
2023-03-12T14:20:21.532Z,9.82
2023-03-12T14:22:57.402Z,7.72
2023-03-12T14:25:43.613Z,6.80
2023-03-12T14:28:19.001Z,13.48
2023-03-12T14:30:57.133Z,14.60
2023-03-12T14:33:26.202Z,6.65
2023-03-12T14:36:00.261Z,12.90
2023-03-12T14:38:38.928Z,9.07
2023-03-12T14:41:32.017Z,8.60
2023-03-12T14:46:33.600Z,12.68
2023-03-12T14:49:00.742Z,9.23
2023-03-12T14:51:35.417Z,9.68
2023-03-12T14:54:03.260Z,7.10
2023-03-12T14:56:35.080Z,12.20
2023-03-12T14:59:20.795Z,7.10
2023-03-12T15:01:48.187Z,10.45
2023-03-12T15:04:19.695Z,7.40
2023-03-12T15:06:59.060Z,8.07
2023-03-12T15:09:29.815Z,7.63
2023-03-12T15:12:03.026Z,8.23
2023-03-12T15:14:33.915Z,7.80
2023-03-12T15:17:03.643Z,6.43
2023-03-12T15:19:35.411Z,7.00
2023-03-12T15:22:04.136Z,10.27
2023-03-12T15:24:38.441Z,9.43
2023-03-12T15:27:28.066Z,8.10
2023-03-12T15:29:57.238Z,9.88
2023-03-12T15:32:26.021Z,15.68
2023-03-12T15:34:56.474Z,10.30
2023-03-12T15:37:41.198Z,10.48
2023-03-12T15:40:22.264Z,8.73
2023-03-12T15:42:49.807Z,8.85
2023-03-12T15:45:21.629Z,13.60
2023-03-12T15:47:50.796Z,13.18
2023-03-12T15:50:23.269Z,12.20
2023-03-12T15:53:11.323Z,8.55
2023-03-12T15:55:39.371Z,20.70
2023-03-12T15:58:40.389Z,9.45
2023-03-12T16:01:14.622Z,10.85
2023-03-12T16:03:45.256Z,15.80
2023-03-12T16:06:18.463Z,8.95
2023-03-12T16:08:52.787Z,8.57
2023-03-12T16:11:23.614Z,8.80
2023-03-12T16:13:54.484Z,13.93
2023-03-12T16:16:21.515Z,9.13
2023-03-12T16:18:48.642Z,8.45
2023-03-12T16:21:15.736Z,10.60
2023-03-12T16:23:42.711Z,7.47
2023-03-12T16:26:13.188Z,10.98
2023-03-12T16:28:40.556Z,11.18
2023-03-12T16:31:15.638Z,12.98
2023-03-12T16:33:44.682Z,11.35
2023-03-12T16:36:16.739Z,21.70
2023-03-12T16:38:44.261Z,13.35
2023-03-12T16:41:17.091Z,19.98
2023-03-12T16:43:51.403Z,10.02
2023-03-12T16:46:20.912Z,20.13
2023-03-12T16:48:55.259Z,12.38
2023-03-12T16:51:22.701Z,10.48
2023-03-12T16:54:01.986Z,14.25
2023-03-12T16:56:36.943Z,10.68
2023-03-12T16:59:10.999Z,14.27
2023-03-12T17:01:38.408Z,16.35
2023-03-12T17:04:05.485Z,13.93
2023-03-12T17:06:32.964Z,12.35
2023-03-12T17:09:00.230Z,17.25
2023-03-12T17:11:33.056Z,13.75
2023-03-12T17:14:03.160Z,21.25
2023-03-12T17:16:30.561Z,12.20
2023-03-12T17:18:58.063Z,24.30
2023-03-12T17:21:25.181Z,12.18
2023-03-12T17:23:52.236Z,17.17
2023-03-12T17:26:19.376Z,20.95
2023-03-12T17:28:47.186Z,16.95
2023-03-12T17:31:14.287Z,18.20
2023-03-12T17:33:43.141Z,20.92
2023-03-12T17:36:10.326Z,25.70
2023-03-12T17:38:37.881Z,18.85
2023-03-12T17:41:09.355Z,23.80
2023-03-12T17:43:39.412Z,26.80
2023-03-12T17:46:08.940Z,32.33
2023-03-12T17:48:36.057Z,33.10
2023-03-12T17:51:07.938Z,19.35
2023-03-12T17:53:35.002Z,21.83
2023-03-12T17:56:02.263Z,27.05
2023-03-12T17:58:29.292Z,21.45
2023-03-12T18:00:59.239Z,25.15
2023-03-12T18:03:26.326Z,21.63
2023-03-12T18:05:53.469Z,26.08
2023-03-12T18:08:20.609Z,25.23
2023-03-12T18:10:48.216Z,33.80
2023-03-12T18:13:15.503Z,24.40
2023-03-12T18:15:42.555Z,27.67
2023-03-12T18:18:09.550Z,27.10
2023-03-12T18:20:39.495Z,27.75
2023-03-12T18:23:07.073Z,28.10
2023-03-12T18:25:34.129Z,19.90
2023-03-12T18:28:01.120Z,29.98
2023-03-12T18:30:28.370Z,28.15
2023-03-12T18:32:55.430Z,32.78
2023-03-12T18:35:22.767Z,30.92
2023-03-12T18:37:51.806Z,18.02
2023-03-12T18:40:18.862Z,38.67
2023-03-12T18:42:45.908Z,24.33
2023-03-12T18:45:13.215Z,26.83
2023-03-12T18:47:40.369Z,24.20
2023-03-12T18:50:08.491Z,38.05
2023-03-12T18:52:35.616Z,30.20
2023-03-12T18:55:04.340Z,25.50
2023-03-12T18:57:31.619Z,29.70
2023-03-12T18:59:59.411Z,34.08
2023-03-12T19:02:26.530Z,30.77
2023-03-12T19:04:56.048Z,41.70
2023-03-12T19:07:23.303Z,39.00
2023-03-12T19:09:50.458Z,38.78
2023-03-12T19:12:17.757Z,31.33
2023-03-12T19:14:44.919Z,28.45
2023-03-12T19:17:11.979Z,29.65
2023-03-12T19:19:39.019Z,25.50
2023-03-12T19:22:08.951Z,24.65
2023-03-12T19:24:36.326Z,32.10
2023-03-12T19:27:03.425Z,32.10
2023-03-12T19:29:30.757Z,41.38
2023-03-12T19:31:58.069Z,35.65
2023-03-12T19:34:25.281Z,27.20
2023-03-12T19:36:52.539Z,28.25
2023-03-12T19:39:21.592Z,33.95
2023-03-12T19:41:50.190Z,21.23
2023-03-12T19:44:17.187Z,28.23
2023-03-12T19:46:44.328Z,29.63
2023-03-12T19:49:11.342Z,38.47
2023-03-12T19:51:40.224Z,34.35
2023-03-12T19:54:07.575Z,24.17
2023-03-12T19:56:34.742Z,31.20
2023-03-12T19:59:01.767Z,27.33
2023-03-12T20:01:28.781Z,28.10
2023-03-12T20:03:55.957Z,31.90
2023-03-12T20:06:23.094Z,27.88
2023-03-12T20:08:50.115Z,25.33
2023-03-12T20:11:17.125Z,40.70
2023-03-12T20:13:45.241Z,28.42
2023-03-12T20:16:13.817Z,25.08
2023-03-12T20:18:40.991Z,22.83
2023-03-12T20:21:08.107Z,35.00
2023-03-12T20:23:35.183Z,25.65
2023-03-12T20:26:02.382Z,28.08
2023-03-12T20:28:29.495Z,31.05
2023-03-12T20:30:56.691Z,26.33
2023-03-12T20:33:23.788Z,29.75
2023-03-12T20:35:51.309Z,35.97
2023-03-12T20:38:18.491Z,27.95
2023-03-12T20:40:46.278Z,29.58
2023-03-12T20:43:13.268Z,27.02
2023-03-12T20:45:40.755Z,34.53
2023-03-12T20:48:07.932Z,24.75
2023-03-12T20:50:37.520Z,38.65
2023-03-12T20:53:04.588Z,35.78
2023-03-12T20:55:31.589Z,32.55
2023-03-12T20:57:59.169Z,20.88
2023-03-12T21:00:26.160Z,35.92
2023-03-12T21:02:53.402Z,32.70
2023-03-12T21:05:20.684Z,21.48
2023-03-12T21:07:48.903Z,24.98
2023-03-12T21:10:16.145Z,34.67
2023-03-12T21:12:43.402Z,36.33
2023-03-12T21:15:12.368Z,27.17
2023-03-12T21:17:40.328Z,33.33
2023-03-12T21:20:12.953Z,36.78
2023-03-12T21:25:07.597Z,27.65
2023-03-12T21:27:44.713Z,27.13
2023-03-12T21:30:17.464Z,18.80
2023-03-12T21:32:44.609Z,33.15
2023-03-12T21:35:11.742Z,29.35
2023-03-12T21:37:38.821Z,19.70
2023-03-12T21:40:07.764Z,37.38
2023-03-12T21:42:34.887Z,34.30
2023-03-12T21:45:01.875Z,35.92
2023-03-12T21:47:28.907Z,45.28
2023-03-12T21:49:55.895Z,26.73
2023-03-12T21:52:22.974Z,22.52
2023-03-12T21:54:50.166Z,32.38
2023-03-12T21:57:17.206Z,35.42
2023-03-12T21:59:44.236Z,37.10
2023-03-12T22:02:12.736Z,25.45
2023-03-12T22:04:40.082Z,34.05
2023-03-12T22:07:07.414Z,24.35
2023-03-12T22:09:34.412Z,22.35
2023-03-12T22:12:01.790Z,23.55
2023-03-12T22:14:29.055Z,37.85
2023-03-12T22:16:56.625Z,22.55
2023-03-12T22:19:24.281Z,37.60
2023-03-12T22:21:51.319Z,28.90
2023-03-12T22:24:18.317Z,26.48
2023-03-12T22:26:46.517Z,29.15
2023-03-12T22:29:13.682Z,26.67
2023-03-12T22:31:40.788Z,20.45
2023-03-12T22:34:08.076Z,25.35
2023-03-12T22:36:35.162Z,25.65
2023-03-12T22:39:02.184Z,39.33
2023-03-12T22:41:29.973Z,25.60
2023-03-12T22:44:02.232Z,29.90
2023-03-12T22:46:29.595Z,28.13
2023-03-12T22:48:59.903Z,24.50
2023-03-12T22:51:28.774Z,19.90
2023-03-12T22:53:55.791Z,36.63
2023-03-12T22:56:23.377Z,35.83
2023-03-12T22:58:50.468Z,27.27
2023-03-12T23:01:20.381Z,18.17
2023-03-12T23:03:48.223Z,29.85
2023-03-12T23:06:24.127Z,31.48
2023-03-12T23:08:52.517Z,28.63
2023-03-12T23:11:20.704Z,27.67
2023-03-12T23:13:49.622Z,43.95
2023-03-12T23:16:19.807Z,30.90
2023-03-12T23:18:47.348Z,30.20
2023-03-12T23:21:19.915Z,27.30
2023-03-12T23:26:26.962Z,31.42
2023-03-12T23:28:58.717Z,24.23
2023-03-12T23:31:27.595Z,27.50
2023-03-12T23:33:56.072Z,24.42
2023-03-12T23:36:24.119Z,27.02
2023-03-12T23:38:51.374Z,31.83
2023-03-12T23:41:23.693Z,29.73
2023-03-12T23:43:51.491Z,26.05
2023-03-12T23:46:19.701Z,31.15
2023-03-12T23:48:46.907Z,24.50
2023-03-12T23:51:22.369Z,34.53
2023-03-12T23:53:51.682Z,24.35
2023-03-12T23:56:21.719Z,23.98
2023-03-12T23:58:50.412Z,36.08
